DTKA/TBJ METAR and TAF weather

Enter ICAO airport designator
Station Type Date Time Source
DTKA METAR 2018/01/16 09:00 UTC NOAA

DTKA 160900Z 22009KT 9999 SCT020 14/08 Q1027 NOSIG


Station Type Date Time Source
DTKA Decoded METAR 2018/01/16 09:00 UTC NOAA

Tabarka, Tunisia (DTKA) 36-57N 008-45E 21M
Jan 16, 2018 - 04:00 AM EST / 2018.01.16 0900 UTC
Wind: from the SW (220 degrees) at 10 MPH (9 KT):0
Visibility: greater than 7 mile(s):0
Sky conditions: partly cloudy
Temperature: 57 F (14 C)
Dew Point: 46 F (8 C)
Relative Humidity: 67%
Pressure (altimeter): 30.33 in. Hg (1027 hPa)
ob: DTKA 160900Z 22009KT 9999 SCT020 14/08 Q1027 NOSIG
cycle: 9

Station Type Date Time Source
DTKA TAF 2017/08/22 04:48 UTC NOAA

TAF DTKA 220640Z 2204/2216 07003KT 9999 FEW020
BECMG 2208/2210 33010KT


Example: see airport list